createdAt,value
2018-05-29T00:01:46.850Z,21.43
2018-05-29T00:04:14.501Z,21.42
2018-05-29T00:06:42.169Z,21.38
2018-05-29T00:09:09.881Z,21.34
2018-05-29T00:11:37.552Z,21.41
2018-05-29T00:14:05.208Z,21.42
2018-05-29T00:16:32.854Z,21.39
2018-05-29T00:19:00.573Z,21.46
2018-05-29T00:21:28.220Z,21.49
2018-05-29T00:23:55.874Z,21.52
2018-05-29T00:26:23.535Z,21.60
2018-05-29T00:28:51.187Z,21.59
2018-05-29T00:31:18.830Z,21.58
2018-05-29T00:33:46.496Z,21.60
2018-05-29T00:36:14.149Z,21.67
2018-05-29T00:38:41.812Z,21.68
2018-05-29T00:41:09.475Z,21.69
2018-05-29T00:43:37.108Z,21.67
2018-05-29T00:46:04.754Z,21.67
2018-05-29T00:48:32.392Z,21.66
2018-05-29T00:51:00.050Z,21.67
2018-05-29T00:53:27.690Z,21.66
2018-05-29T00:55:55.346Z,21.61
2018-05-29T00:58:22.993Z,21.62
2018-05-29T01:00:51.568Z,21.60
2018-05-29T01:03:19.217Z,21.60
2018-05-29T01:05:46.850Z,21.52
2018-05-29T01:08:14.483Z,21.52
2018-05-29T01:10:42.134Z,21.49
2018-05-29T01:13:09.779Z,21.42
2018-05-29T01:15:37.425Z,21.39
2018-05-29T01:18:05.074Z,21.37
2018-05-29T01:20:32.706Z,21.32
2018-05-29T01:23:00.359Z,21.22
2018-05-29T01:25:28.020Z,21.21
2018-05-29T01:27:55.685Z,21.15
2018-05-29T01:30:23.352Z,21.08
2018-05-29T01:32:50.993Z,21.06
2018-05-29T01:35:18.652Z,21.05
2018-05-29T01:37:46.292Z,20.96
2018-05-29T01:40:13.939Z,20.91
2018-05-29T01:42:41.570Z,20.88
2018-05-29T01:45:09.208Z,20.83
2018-05-29T01:47:36.873Z,20.72
2018-05-29T01:50:04.521Z,20.70
2018-05-29T01:52:32.184Z,20.64
2018-05-29T01:54:59.826Z,20.52
2018-05-29T01:57:27.482Z,20.48
2018-05-29T01:59:55.147Z,20.48
2018-05-29T02:02:22.801Z,20.38
2018-05-29T02:04:50.449Z,20.23
2018-05-29T02:07:18.106Z,20.14
2018-05-29T02:09:45.761Z,20.11
2018-05-29T02:12:13.398Z,20.01
2018-05-29T02:14:41.059Z,19.99
2018-05-29T02:17:08.705Z,19.90
2018-05-29T02:19:36.372Z,19.86
2018-05-29T02:22:03.998Z,19.84
2018-05-29T02:24:31.697Z,19.84
2018-05-29T02:26:59.338Z,19.80
2018-05-29T02:29:26.973Z,19.79
2018-05-29T02:31:54.634Z,19.69
2018-05-29T02:34:22.279Z,19.65
2018-05-29T02:36:49.931Z,19.65
2018-05-29T02:39:17.603Z,19.69
2018-05-29T02:41:45.285Z,19.63
2018-05-29T02:44:12.923Z,19.53
2018-05-29T02:46:40.566Z,19.41
2018-05-29T02:49:08.207Z,19.31
2018-05-29T02:51:35.876Z,19.22
2018-05-29T02:54:03.510Z,19.19
2018-05-29T02:56:31.138Z,19.13
2018-05-29T02:58:58.786Z,19.08
2018-05-29T03:01:26.442Z,19.04
2018-05-29T03:03:54.088Z,18.96
2018-05-29T03:06:21.747Z,19.01
2018-05-29T03:08:49.425Z,18.99
2018-05-29T03:11:17.091Z,18.89
2018-05-29T03:13:44.754Z,18.85
2018-05-29T03:16:12.401Z,18.83
2018-05-29T03:18:40.054Z,18.78
2018-05-29T03:21:07.704Z,18.77
2018-05-29T03:23:35.358Z,18.73
2018-05-29T03:26:03.018Z,18.74
2018-05-29T03:28:30.689Z,18.78
2018-05-29T03:30:58.344Z,18.75
2018-05-29T03:33:26.018Z,18.74
2018-05-29T03:35:53.660Z,18.74
2018-05-29T03:38:21.300Z,18.80
2018-05-29T03:40:48.947Z,18.82
2018-05-29T03:43:16.578Z,18.92
2018-05-29T03:45:44.207Z,18.92
2018-05-29T03:48:12.297Z,18.94
2018-05-29T03:50:39.949Z,19.01
2018-05-29T03:53:07.601Z,19.11
2018-05-29T03:55:35.233Z,19.16
2018-05-29T03:58:02.889Z,19.28
2018-05-29T04:00:34.861Z,19.33
2018-05-29T04:03:02.497Z,19.34
2018-05-29T04:05:30.174Z,19.45
2018-05-29T04:07:57.842Z,19.49
2018-05-29T04:10:25.512Z,19.54
2018-05-29T04:12:55.123Z,19.68
2018-05-29T04:15:22.901Z,19.73
2018-05-29T04:17:50.594Z,19.78
2018-05-29T04:20:18.232Z,19.84
2018-05-29T04:22:45.885Z,19.99
2018-05-29T04:25:13.516Z,20.19
2018-05-29T04:27:41.581Z,20.29
2018-05-29T04:30:09.212Z,20.13
2018-05-29T04:32:37.018Z,20.21
2018-05-29T04:35:04.674Z,20.38
2018-05-29T04:37:32.315Z,20.49
2018-05-29T04:39:59.957Z,20.49
2018-05-29T04:42:27.912Z,20.55
2018-05-29T04:44:55.587Z,20.73
2018-05-29T04:47:23.240Z,20.75
2018-05-29T04:49:50.879Z,21.09
2018-05-29T04:52:18.512Z,21.81
2018-05-29T04:54:46.172Z,22.25
2018-05-29T04:57:13.802Z,22.39
2018-05-29T04:59:42.079Z,22.91
2018-05-29T05:02:09.713Z,23.92
2018-05-29T05:04:37.353Z,24.79
2018-05-29T05:07:05.114Z,25.68
2018-05-29T05:09:32.749Z,26.93
2018-05-29T05:12:00.392Z,26.71
2018-05-29T05:14:28.025Z,27.46
2018-05-29T05:16:55.942Z,27.31
2018-05-29T05:19:24.528Z,27.85
2018-05-29T05:21:52.513Z,28.43
2018-05-29T05:24:20.178Z,27.83
2018-05-29T05:26:47.822Z,27.05
2018-05-29T05:29:17.631Z,26.11
2018-05-29T05:31:45.565Z,26.30
2018-05-29T05:34:13.207Z,26.56
2018-05-29T05:36:40.839Z,27.31
2018-05-29T05:39:08.487Z,27.76
2018-05-29T05:41:36.129Z,28.38
2018-05-29T05:44:03.781Z,29.17
2018-05-29T05:46:31.424Z,29.30
2018-05-29T05:48:59.067Z,28.94
2018-05-29T05:51:26.742Z,28.90
2018-05-29T05:53:54.380Z,29.57
2018-05-29T05:56:22.803Z,29.61
2018-05-29T05:58:50.445Z,29.94
2018-05-29T06:01:18.111Z,30.57
2018-05-29T06:03:45.761Z,30.10
2018-05-29T06:06:13.780Z,30.04
2018-05-29T06:08:42.201Z,30.55
2018-05-29T06:11:09.823Z,31.06
2018-05-29T06:13:37.462Z,31.02
2018-05-29T06:16:05.103Z,31.33
2018-05-29T06:18:33.120Z,31.75
2018-05-29T06:21:01.261Z,32.06
2018-05-29T06:23:29.234Z,31.71
2018-05-29T06:25:59.286Z,31.07
2018-05-29T06:28:26.934Z,30.93
2018-05-29T06:30:54.579Z,31.78
2018-05-29T06:33:22.222Z,32.50
2018-05-29T06:35:49.870Z,32.49
2018-05-29T06:38:17.567Z,32.78
2018-05-29T06:40:45.211Z,31.73
2018-05-29T06:43:12.848Z,30.75
2018-05-29T06:45:40.489Z,31.23
2018-05-29T06:48:09.211Z,31.92
2018-05-29T06:50:36.878Z,32.12
2018-05-29T06:53:04.527Z,32.91
2018-05-29T06:55:32.170Z,31.24
2018-05-29T06:58:00.001Z,31.83
2018-05-29T07:00:27.667Z,31.45
2018-05-29T07:02:55.301Z,32.18
2018-05-29T07:05:22.969Z,31.14
2018-05-29T07:07:50.609Z,31.03
2018-05-29T07:10:18.255Z,29.27
2018-05-29T07:12:45.896Z,29.27
2018-05-29T07:15:13.538Z,29.82
2018-05-29T07:17:41.172Z,30.84
2018-05-29T07:20:08.841Z,31.95
2018-05-29T07:22:36.468Z,32.03
2018-05-29T07:25:04.118Z,30.83
2018-05-29T07:27:31.766Z,29.70
2018-05-29T07:29:59.410Z,29.48
2018-05-29T07:32:27.065Z,29.48
2018-05-29T07:34:54.709Z,29.58
2018-05-29T07:37:22.341Z,30.29
2018-05-29T07:39:49.982Z,31.67
2018-05-29T07:42:17.633Z,31.50
2018-05-29T07:44:45.300Z,32.64
2018-05-29T07:47:12.932Z,32.15
2018-05-29T07:49:40.601Z,32.69
2018-05-29T07:52:08.238Z,32.21
2018-05-29T07:54:35.881Z,32.39
2018-05-29T07:57:03.570Z,29.72
2018-05-29T07:59:31.251Z,29.70
2018-05-29T08:01:58.885Z,29.48
2018-05-29T08:04:26.541Z,29.53
2018-05-29T08:06:54.179Z,29.62
2018-05-29T08:09:21.820Z,30.26
2018-05-29T08:11:49.470Z,29.85
2018-05-29T08:14:17.125Z,29.73
2018-05-29T08:16:44.774Z,29.58
2018-05-29T08:19:12.415Z,29.65
2018-05-29T08:21:40.049Z,29.93
2018-05-29T08:24:07.684Z,29.74
2018-05-29T08:26:35.334Z,31.22
2018-05-29T08:29:02.971Z,31.50
2018-05-29T08:31:30.619Z,30.59
2018-05-29T08:33:58.254Z,30.99
2018-05-29T08:36:25.884Z,31.46
2018-05-29T08:38:53.520Z,32.01
2018-05-29T08:41:21.163Z,30.97
2018-05-29T08:43:48.788Z,31.00
2018-05-29T08:46:16.450Z,31.34
2018-05-29T08:48:44.085Z,32.34
2018-05-29T08:51:11.717Z,32.15
2018-05-29T08:53:39.347Z,31.49
2018-05-29T08:56:06.997Z,30.61
2018-05-29T08:58:34.683Z,30.53
2018-05-29T09:01:02.318Z,31.72
2018-05-29T09:03:29.946Z,31.78
2018-05-29T09:05:57.584Z,30.72
2018-05-29T09:08:25.219Z,30.63
2018-05-29T09:10:52.924Z,30.82
2018-05-29T09:13:20.560Z,31.42
2018-05-29T09:15:48.186Z,31.12
2018-05-29T09:18:15.852Z,30.85
2018-05-29T09:20:43.503Z,29.85
2018-05-29T09:23:11.148Z,30.00
2018-05-29T09:25:38.785Z,29.88
2018-05-29T09:28:06.429Z,30.84
2018-05-29T09:30:34.066Z,30.29
2018-05-29T09:33:01.702Z,30.03
2018-05-29T09:35:29.371Z,30.32
2018-05-29T09:37:57.022Z,30.51
2018-05-29T09:40:24.707Z,30.21
2018-05-29T09:42:52.350Z,30.31
2018-05-29T09:45:19.989Z,30.44
2018-05-29T09:47:47.632Z,30.99
2018-05-29T09:50:15.288Z,30.53
2018-05-29T09:52:42.913Z,30.36
2018-05-29T09:55:10.554Z,30.48
2018-05-29T09:57:38.204Z,30.53
2018-05-29T10:00:05.852Z,30.62
2018-05-29T10:02:33.485Z,30.74
2018-05-29T10:05:01.128Z,30.96
2018-05-29T10:07:28.772Z,31.00
2018-05-29T10:09:56.404Z,30.83
2018-05-29T10:12:24.057Z,30.58
2018-05-29T10:14:51.687Z,30.64
2018-05-29T10:17:19.319Z,30.67
2018-05-29T10:19:46.983Z,30.62
2018-05-29T10:22:14.618Z,30.79
2018-05-29T10:24:42.271Z,30.82
2018-05-29T10:27:09.913Z,30.64
2018-05-29T10:29:37.549Z,30.52
2018-05-29T10:32:05.193Z,30.86
2018-05-29T10:34:32.823Z,30.81
2018-05-29T10:37:00.455Z,30.98
2018-05-29T10:39:28.088Z,30.42
2018-05-29T10:41:55.755Z,30.39
2018-05-29T10:44:23.379Z,30.69
2018-05-29T10:46:51.009Z,30.56
2018-05-29T10:49:18.656Z,30.83
2018-05-29T10:51:46.268Z,30.87
2018-05-29T10:54:13.968Z,30.56
2018-05-29T10:56:41.610Z,30.54
2018-05-29T10:59:09.300Z,30.11
2018-05-29T11:01:36.912Z,30.58
2018-05-29T11:04:04.534Z,30.43
2018-05-29T11:06:32.160Z,30.61
2018-05-29T11:08:59.806Z,31.02
2018-05-29T11:11:27.442Z,30.96
2018-05-29T11:13:55.076Z,30.83
2018-05-29T11:16:22.708Z,30.74
2018-05-29T11:18:50.337Z,31.21
2018-05-29T11:21:17.973Z,31.19
2018-05-29T11:23:45.593Z,31.42
2018-05-29T11:26:13.236Z,31.38
2018-05-29T11:28:40.865Z,31.29
2018-05-29T11:31:09.351Z,31.23
2018-05-29T11:33:36.995Z,31.13
2018-05-29T11:36:04.646Z,31.17
2018-05-29T11:38:32.276Z,30.72
2018-05-29T11:40:59.892Z,30.82
2018-05-29T11:43:27.570Z,31.15
2018-05-29T11:45:55.182Z,31.04
2018-05-29T11:48:22.818Z,31.36
2018-05-29T11:50:50.446Z,31.12
2018-05-29T11:53:18.061Z,31.01
2018-05-29T11:55:45.708Z,30.90
2018-05-29T11:58:13.350Z,31.01
2018-05-29T12:00:41.044Z,30.95
2018-05-29T12:03:08.654Z,31.20
2018-05-29T12:05:36.286Z,31.22
2018-05-29T12:08:03.916Z,31.34
2018-05-29T12:10:31.539Z,31.26
2018-05-29T12:12:59.165Z,31.23
2018-05-29T12:15:26.788Z,31.30
2018-05-29T12:17:54.448Z,31.13
2018-05-29T12:20:22.113Z,31.15
2018-05-29T12:22:49.757Z,31.41
2018-05-29T12:25:17.388Z,31.53
2018-05-29T12:27:45.007Z,31.19
2018-05-29T12:30:12.636Z,31.17
2018-05-29T12:32:40.261Z,31.13
2018-05-29T12:35:07.911Z,30.79
2018-05-29T12:37:35.571Z,30.76
2018-05-29T12:40:03.260Z,31.01
2018-05-29T12:42:30.884Z,31.28
2018-05-29T12:44:58.556Z,31.21
2018-05-29T12:47:26.174Z,31.46
2018-05-29T12:49:53.793Z,31.12
2018-05-29T12:52:21.433Z,30.88
2018-05-29T12:54:49.091Z,31.07
2018-05-29T12:57:16.731Z,31.21
2018-05-29T12:59:44.346Z,31.35
2018-05-29T13:02:11.974Z,31.49
2018-05-29T13:04:39.610Z,31.65
2018-05-29T13:07:07.267Z,31.86
2018-05-29T13:09:34.902Z,31.54
2018-05-29T13:12:02.543Z,31.28
2018-05-29T13:14:30.180Z,31.29
2018-05-29T13:16:57.798Z,31.48
2018-05-29T13:19:25.444Z,31.47
2018-05-29T13:21:53.066Z,31.17
2018-05-29T13:24:20.703Z,31.36
2018-05-29T13:26:48.414Z,31.42
2018-05-29T13:29:16.055Z,31.42
2018-05-29T13:31:43.697Z,31.34
2018-05-29T13:34:11.338Z,31.25
2018-05-29T13:36:38.950Z,31.38
2018-05-29T13:39:06.625Z,31.15
2018-05-29T13:41:34.260Z,31.38
2018-05-29T13:44:01.904Z,31.05
2018-05-29T13:46:33.544Z,31.17
2018-05-29T13:49:01.191Z,31.23
2018-05-29T13:51:28.835Z,31.41
2018-05-29T13:53:56.506Z,31.03
2018-05-29T13:56:24.207Z,31.16
2018-05-29T13:58:51.837Z,31.49
2018-05-29T14:01:19.485Z,31.39
2018-05-29T14:03:47.147Z,31.39
2018-05-29T14:06:14.772Z,31.26
2018-05-29T14:08:42.404Z,31.43
2018-05-29T14:11:10.036Z,31.41
2018-05-29T14:13:37.675Z,31.26
2018-05-29T14:16:05.315Z,31.19
2018-05-29T14:18:32.965Z,31.16
2018-05-29T14:21:00.585Z,31.30
2018-05-29T14:23:28.218Z,31.45
2018-05-29T14:25:55.861Z,31.42
2018-05-29T14:28:23.501Z,31.43
2018-05-29T14:30:51.146Z,31.60
2018-05-29T14:33:18.781Z,31.62
2018-05-29T14:35:46.410Z,31.68
2018-05-29T14:38:14.048Z,31.26
2018-05-29T14:40:41.693Z,31.11
2018-05-29T14:43:20.926Z,31.08
2018-05-29T14:45:48.816Z,31.28
2018-05-29T14:48:16.442Z,31.00
2018-05-29T14:50:44.094Z,31.10
2018-05-29T14:53:11.743Z,31.01
2018-05-29T14:55:39.420Z,30.90
2018-05-29T14:58:07.079Z,30.82
2018-05-29T15:00:34.801Z,30.86
2018-05-29T15:03:02.433Z,30.94
2018-05-29T15:05:30.061Z,31.20
2018-05-29T15:07:57.691Z,31.26
2018-05-29T15:10:25.354Z,31.05
2018-05-29T15:12:53.031Z,30.83
2018-05-29T15:15:20.667Z,30.82
2018-05-29T15:17:48.294Z,30.90
2018-05-29T15:20:15.931Z,30.71
2018-05-29T15:22:43.558Z,30.57
2018-05-29T15:25:11.286Z,30.39
2018-05-29T15:27:38.931Z,30.27
2018-05-29T15:30:06.578Z,30.26
2018-05-29T15:32:34.216Z,30.33
2018-05-29T15:35:01.841Z,30.20
2018-05-29T15:37:29.475Z,30.12
2018-05-29T15:39:57.124Z,30.15
2018-05-29T15:42:24.757Z,30.17
2018-05-29T15:44:57.586Z,30.10
2018-05-29T15:47:25.218Z,30.03
2018-05-29T15:49:52.838Z,29.97
2018-05-29T15:52:20.468Z,29.95
2018-05-29T15:54:48.130Z,29.84
2018-05-29T15:57:15.786Z,29.80
2018-05-29T15:59:43.437Z,29.79
2018-05-29T16:02:11.058Z,29.80
2018-05-29T16:04:38.679Z,29.76
2018-05-29T16:07:06.304Z,29.68
2018-05-29T16:09:33.985Z,29.59
2018-05-29T16:12:01.610Z,29.59
2018-05-29T16:14:29.264Z,29.51
2018-05-29T16:16:59.871Z,29.57
2018-05-29T16:19:27.813Z,29.54
2018-05-29T16:21:55.477Z,29.50
2018-05-29T16:24:23.145Z,29.55
2018-05-29T16:26:50.789Z,29.48
2018-05-29T16:29:18.435Z,29.46
2018-05-29T16:31:46.084Z,29.29
2018-05-29T16:34:13.732Z,29.27
2018-05-29T16:36:41.381Z,29.28
2018-05-29T16:39:09.010Z,29.22
2018-05-29T16:41:36.632Z,29.20
2018-05-29T16:44:11.594Z,29.14
2018-05-29T16:46:40.218Z,29.09
2018-05-29T16:49:07.872Z,29.04
2018-05-29T16:51:35.498Z,29.06
2018-05-29T16:54:03.155Z,29.00
2018-05-29T16:56:30.798Z,28.97
2018-05-29T16:58:58.427Z,28.96
2018-05-29T17:01:26.087Z,28.89
2018-05-29T17:03:57.017Z,28.89
2018-05-29T17:06:24.647Z,28.89
2018-05-29T17:08:54.563Z,28.77
2018-05-29T17:11:22.350Z,28.76
2018-05-29T17:13:49.982Z,28.67
2018-05-29T17:16:17.620Z,28.66
2018-05-29T17:18:45.269Z,28.53
2018-05-29T17:21:14.670Z,28.49
2018-05-29T17:23:43.495Z,28.49
2018-05-29T17:26:12.209Z,28.39
2018-05-29T17:28:39.861Z,28.31
2018-05-29T17:31:07.532Z,28.28
2018-05-29T17:33:36.082Z,28.18
2018-05-29T17:36:03.725Z,28.18
2018-05-29T17:38:31.366Z,28.10
2018-05-29T17:40:58.994Z,28.04
2018-05-29T17:43:26.620Z,28.03
2018-05-29T17:45:54.259Z,27.96
2018-05-29T17:48:21.903Z,27.85
2018-05-29T17:50:49.521Z,27.74
2018-05-29T17:53:17.160Z,27.73
2018-05-29T17:55:44.831Z,27.58
2018-05-29T17:58:13.166Z,27.49
2018-05-29T18:00:40.852Z,27.41
2018-05-29T18:03:08.493Z,27.40
2018-05-29T18:05:36.137Z,27.32
2018-05-29T18:08:07.530Z,27.22
2018-05-29T18:10:35.189Z,27.16
2018-05-29T18:13:02.852Z,27.11
2018-05-29T18:15:30.508Z,27.01
2018-05-29T18:17:58.139Z,26.90
2018-05-29T18:20:25.779Z,26.80
2018-05-29T18:22:53.409Z,26.71
2018-05-29T18:25:21.046Z,26.62
2018-05-29T18:27:48.679Z,26.57
2018-05-29T18:30:16.308Z,26.41
2018-05-29T18:32:43.936Z,26.34
2018-05-29T18:35:11.587Z,26.30
2018-05-29T18:37:39.254Z,26.17
2018-05-29T18:40:13.264Z,26.06
2018-05-29T18:42:48.705Z,26.02
2018-05-29T18:45:23.638Z,25.93
2018-05-29T18:47:59.198Z,25.93
2018-05-29T18:50:33.128Z,25.82
2018-05-29T18:53:06.216Z,25.62
2018-05-29T18:55:39.801Z,25.41
2018-05-29T18:58:13.387Z,25.21
2018-05-29T19:00:41.766Z,25.00
2018-05-29T19:03:09.427Z,24.80
2018-05-29T19:05:37.084Z,24.71
2018-05-29T19:08:05.605Z,24.61
2018-05-29T19:10:33.241Z,24.47
2018-05-29T19:13:00.888Z,24.40
2018-05-29T19:15:28.520Z,24.31
2018-05-29T19:17:56.161Z,24.25
2018-05-29T19:20:23.811Z,24.08
2018-05-29T19:22:51.515Z,24.00
2018-05-29T19:25:19.143Z,23.90
2018-05-29T19:27:48.774Z,23.74
2018-05-29T19:30:20.284Z,23.66
2018-05-29T19:32:48.333Z,23.52
2018-05-29T19:35:16.061Z,23.44
2018-05-29T19:37:44.185Z,23.38
2018-05-29T19:40:11.864Z,23.32
2018-05-29T19:42:39.524Z,23.29
2018-05-29T19:45:07.196Z,23.24
2018-05-29T19:47:34.833Z,23.18
2018-05-29T19:50:02.475Z,23.16
2018-05-29T19:52:30.118Z,23.07
2018-05-29T19:54:57.758Z,23.01
2018-05-29T19:57:25.412Z,23.00
2018-05-29T19:59:58.783Z,22.91
2018-05-29T20:02:26.743Z,22.81
2018-05-29T20:04:54.594Z,22.77
2018-05-29T20:07:26.535Z,22.73
2018-05-29T20:09:54.582Z,22.62
2018-05-29T20:12:22.317Z,22.60
2018-05-29T20:14:50.030Z,22.49
2018-05-29T20:17:17.742Z,22.40
2018-05-29T20:19:45.509Z,22.35
2018-05-29T20:22:13.210Z,22.24
2018-05-29T20:24:41.054Z,22.21
2018-05-29T20:27:08.698Z,22.18
2018-05-29T20:29:36.446Z,22.23
2018-05-29T20:32:04.178Z,22.24
2018-05-29T20:34:31.829Z,22.26
2018-05-29T20:36:59.531Z,22.22
2018-05-29T20:39:27.348Z,22.19
2018-05-29T20:41:55.071Z,22.17
2018-05-29T20:44:22.778Z,22.16
2018-05-29T20:46:50.473Z,22.15
2018-05-29T20:49:18.148Z,22.23
2018-05-29T20:51:45.839Z,22.31
2018-05-29T20:54:13.612Z,22.34
2018-05-29T20:56:41.275Z,22.35
2018-05-29T20:59:09.053Z,22.38
2018-05-29T21:01:36.720Z,22.37
2018-05-29T21:04:04.351Z,22.35
2018-05-29T21:06:32.042Z,22.35
2018-05-29T21:08:59.882Z,22.34
2018-05-29T21:11:27.642Z,22.35
2018-05-29T21:13:55.343Z,22.37
2018-05-29T21:16:23.079Z,22.31
2018-05-29T21:18:50.874Z,22.28
2018-05-29T21:21:18.571Z,22.26
2018-05-29T21:23:46.232Z,22.22
2018-05-29T21:26:14.006Z,22.21
2018-05-29T21:28:41.794Z,22.16
2018-05-29T21:31:09.688Z,22.15
2018-05-29T21:33:37.418Z,22.08
2018-05-29T21:36:05.268Z,22.08
2018-05-29T21:38:32.936Z,22.03
2018-05-29T21:41:00.678Z,21.97
2018-05-29T21:43:28.344Z,21.90
2018-05-29T21:45:56.038Z,21.84
2018-05-29T21:48:23.855Z,21.78
2018-05-29T21:50:51.630Z,21.76
2018-05-29T21:53:19.401Z,21.68
2018-05-29T21:55:47.172Z,21.66
2018-05-29T21:58:14.956Z,21.69
2018-05-29T22:00:42.706Z,21.55
2018-05-29T22:03:10.364Z,21.53
2018-05-29T22:05:38.076Z,21.50
2018-05-29T22:08:06.603Z,21.45
2018-05-29T22:10:34.353Z,21.43
2018-05-29T22:13:02.069Z,21.41
2018-05-29T22:15:29.831Z,21.34
2018-05-29T22:17:57.657Z,21.30
2018-05-29T22:20:25.422Z,21.24
2018-05-29T22:22:53.200Z,21.19
2018-05-29T22:25:20.973Z,21.22
2018-05-29T22:27:48.789Z,21.18
2018-05-29T22:30:16.521Z,21.11
2018-05-29T22:32:44.156Z,21.05
2018-05-29T22:35:11.808Z,21.02
2018-05-29T22:37:39.476Z,20.95
2018-05-29T22:40:07.123Z,20.94
2018-05-29T22:42:35.081Z,20.92
2018-05-29T22:45:02.734Z,20.83
2018-05-29T22:47:30.378Z,20.80
2018-05-29T22:49:58.037Z,20.76
2018-05-29T22:52:25.697Z,20.72
2018-05-29T22:54:53.375Z,20.66
2018-05-29T22:57:21.050Z,20.59
2018-05-29T22:59:48.723Z,20.53
2018-05-29T23:02:16.385Z,20.47
2018-05-29T23:04:44.035Z,20.45
2018-05-29T23:07:11.691Z,20.47
2018-05-29T23:09:39.347Z,20.42
2018-05-29T23:12:07.006Z,20.42
2018-05-29T23:14:34.642Z,20.43
2018-05-29T23:17:02.534Z,20.40
2018-05-29T23:19:30.158Z,20.44
2018-05-29T23:21:57.801Z,20.44
2018-05-29T23:24:25.447Z,20.36
2018-05-29T23:26:53.089Z,20.32
2018-05-29T23:29:20.797Z,20.28
2018-05-29T23:31:48.549Z,20.22
2018-05-29T23:34:16.211Z,20.18
2018-05-29T23:36:43.851Z,20.11
2018-05-29T23:39:11.868Z,20.13
2018-05-29T23:41:39.494Z,20.06
2018-05-29T23:44:07.118Z,19.96
2018-05-29T23:46:34.774Z,19.92
2018-05-29T23:49:02.421Z,19.87
2018-05-29T23:51:30.069Z,19.84
2018-05-29T23:53:57.710Z,19.79
2018-05-29T23:56:25.326Z,19.70
2018-05-29T23:58:52.959Z,19.68
